Time;durP1;ratioP1;P1;durP2;ratioP2;P2;SDS_P1;SDS_P2;PMS_P1;PMS_P2;Temp;Humidity;BMP_temperature;BMP_pressure;BME280_temperature;BME280_humidity;BME280_pressure;Samples;Min_cycle;Max_cycle;Signal;HPM_P1;HPM_P2
2022/04/26 03:37:26;;;;;;;15.60;5.57;;;;;;;6.49;71.47;100663.72;5022215;28;20091;-43
2022/04/26 03:39:52;;;;;;;19.50;4.90;;;;;;;6.49;69.96;100662.00;5025436;28;20210;-43
2022/04/26 03:42:19;;;;;;;15.65;5.35;;;;;;;6.48;70.35;100667.97;5025866;28;20110;-47
2022/04/26 03:44:46;;;;;;;14.82;5.40;;;;;;;6.48;71.09;100664.56;5024166;28;20057;-46
2022/04/26 03:47:13;;;;;;;13.63;5.05;;;;;;;6.46;71.90;100661.94;5022649;28;20053;-45
2022/04/26 03:49:39;;;;;;;16.35;6.05;;;;;;;6.47;70.43;100662.78;5026837;28;20103;-45
2022/04/26 03:52:07;;;;;;;13.75;4.22;;;;;;;6.46;71.24;100663.63;5026913;28;20050;-40
2022/04/26 03:54:33;;;;;;;12.55;4.85;;;;;;;6.47;70.47;100655.06;5024117;28;20046;-43
2022/04/26 03:57:00;;;;;;;15.05;5.47;;;;;;;6.47;71.21;100670.50;5027939;28;20485;-40
2022/04/26 03:59:27;;;;;;;14.25;5.20;;;;;;;6.47;71.59;100665.38;5023553;28;20050;-42
2022/04/26 04:01:53;;;;;;;12.07;4.85;;;;;;;6.48;70.39;100669.69;5025843;28;20100;-43
2022/04/26 04:04:20;;;;;;;17.73;5.80;;;;;;;6.49;69.98;100671.44;5022108;28;20053;-48
2022/04/26 04:06:47;;;;;;;12.38;4.70;;;;;;;6.49;71.16;100668.88;5026532;28;20049;-42
2022/04/26 04:09:14;;;;;;;16.05;5.97;;;;;;;6.52;70.40;100672.38;5026280;28;20096;-42
2022/04/26 04:11:40;;;;;;;15.77;5.18;;;;;;;6.53;70.17;100668.09;5023674;28;20505;-43
2022/04/26 04:14:07;;;;;;;12.02;4.68;;;;;;;6.54;70.75;100678.44;5024787;28;20042;-43
2022/04/26 04:16:33;;;;;;;13.00;4.38;;;;;;;6.52;70.20;100676.66;5021153;28;20119;-47
2022/04/26 04:21:48;;;;;;;12.20;4.00;;;;;;;6.51;70.59;100685.19;5025881;28;20570;-45
2022/04/26 04:24:15;;;;;;;16.10;5.07;;;;;;;6.49;69.88;100681.72;5020233;28;20057;-45
2022/04/26 04:26:42;;;;;;;14.15;4.68;;;;;;;6.49;70.12;100684.31;5023920;28;20053;-43
2022/04/26 04:29:09;;;;;;;17.35;5.05;;;;;;;6.48;70.55;100690.28;5027696;28;20432;-45
2022/04/26 04:31:36;;;;;;;14.98;4.72;;;;;;;6.48;69.86;100690.28;5025400;28;20601;-48
2022/04/26 04:34:03;;;;;;;11.90;4.75;;;;;;;6.48;70.88;100690.28;5037079;28;20079;-45
2022/04/26 04:36:30;;;;;;;12.80;4.25;;;;;;;6.45;71.21;100687.63;5030799;28;20111;-48
2022/04/26 04:38:57;;;;;;;18.77;4.47;;;;;;;6.43;71.09;100692.75;5023777;28;20041;-42
2022/04/26 04:41:24;;;;;;;13.68;4.93;;;;;;;6.42;71.05;100686.72;5026049;28;20428;-44
2022/04/26 04:43:51;;;;;;;15.23;5.68;;;;;;;6.42;70.02;100697.00;5019560;28;20045;-44
2022/04/26 04:46:18;;;;;;;11.35;4.80;;;;;;;6.41;70.56;100690.13;5022305;28;20049;-47
2022/04/26 04:48:44;;;;;;;13.52;4.03;;;;;;;6.40;70.49;100697.81;5024831;28;20065;-42
2022/04/26 04:51:11;;;;;;;15.68;4.70;;;;;;;6.37;71.20;100702.88;5023432;28;20107;-45
2022/04/26 04:53:38;;;;;;;12.77;4.95;;;;;;;6.36;70.58;100702.03;5026916;28;20072;-46
2022/04/26 04:56:08;;;;;;;12.35;4.30;;;;;;;6.39;70.25;100701.22;5044073;28;20044;-49
2022/04/26 04:58:35;;;;;;;14.82;4.80;;;;;;;6.36;70.18;100696.88;5043996;28;20136;-44
2022/04/26 05:01:02;;;;;;;13.70;4.68;;;;;;;6.36;70.29;100694.31;5044981;28;20061;-46
2022/04/26 05:03:29;;;;;;;12.00;4.63;;;;;;;6.33;71.62;100707.09;5025485;28;20541;-41
2022/04/26 05:05:55;;;;;;;10.48;3.95;;;;;;;6.31;71.67;100708.72;5027669;28;20070;-43
2022/04/26 05:08:24;;;;;;;19.35;5.22;;;;;;;6.31;71.33;100708.72;5027704;28;20049;-42
2022/04/26 05:10:51;;;;;;;11.35;4.63;;;;;;;6.33;71.46;100704.50;5026249;28;20635;-45
2022/04/26 05:13:18;;;;;;;14.05;4.57;;;;;;;6.32;70.93;100715.63;5025152;28;20046;-41
2022/04/26 05:15:45;;;;;;;14.07;4.97;;;;;;;6.31;70.58;100711.31;5025204;28;20048;-42
2022/04/26 05:18:12;;;;;;;9.15;4.07;;;;;;;6.31;71.80;100711.31;5022598;28;20073;-41
2022/04/26 05:20:39;;;;;;;12.77;3.97;;;;;;;6.34;70.39;100711.38;5023251;28;20049;-43
2022/04/26 05:25:52;;;;;;;14.98;5.22;;;;;;;6.35;71.03;100720.00;5025237;28;20045;-45
2022/04/26 05:28:19;;;;;;;14.90;4.63;;;;;;;6.36;71.43;100722.59;5027234;28;20046;-39
2022/04/26 05:30:52;;;;;;;11.35;4.43;;;;;;;6.37;70.12;100728.59;5025154;28;20053;-45
2022/04/26 05:33:20;;;;;;;14.15;4.40;;;;;;;6.36;71.01;100730.31;5024112;28;20095;-45
2022/04/26 05:35:48;;;;;;;15.27;4.85;;;;;;;6.39;70.93;100722.66;5024559;28;20456;-44
2022/04/26 05:38:15;;;;;;;15.05;4.30;;;;;;;6.41;71.55;100738.13;5024722;28;21804;-44
2022/04/26 05:40:42;;;;;;;12.82;4.93;;;;;;;6.41;70.17;100735.56;5024928;28;20050;-43
2022/04/26 05:43:10;;;;;;;12.40;4.82;;;;;;;6.42;71.11;100738.19;5039540;28;20091;-44
2022/04/26 05:45:36;;;;;;;15.43;4.68;;;;;;;6.42;70.99;100743.31;5044968;28;20052;-44
2022/04/26 05:48:08;;;;;;;11.38;4.97;;;;;;;6.45;71.28;100746.81;5039219;28;20688;-42
2022/04/26 05:50:34;;;;;;;16.45;4.63;;;;;;;6.46;69.83;100748.56;5025799;28;20473;-44
2022/04/26 05:53:01;;;;;;;9.32;4.07;;;;;;;6.45;71.05;100751.97;5024691;28;20045;-47
2022/04/26 05:55:28;;;;;;;12.55;4.07;;;;;;;6.47;70.98;100758.00;5025347;28;20049;-44
2022/04/26 05:57:55;;;;;;;12.85;4.95;;;;;;;6.46;71.09;100758.84;5026832;28;20061;-47
2022/04/26 06:00:21;;;;;;;10.70;4.35;;;;;;;6.46;70.72;100758.84;5023490;28;20140;-52
2022/04/26 06:02:49;;;;;;;14.43;4.47;;;;;;;6.48;71.09;100759.78;5028749;28;20116;-42
2022/04/26 06:05:19;;;;;;;15.25;4.47;;;;;;;6.52;70.29;100764.16;5046314;28;20052;-45
2022/04/26 06:07:45;;;;;;;18.42;4.85;;;;;;;6.53;70.38;100764.22;5044360;28;20455;-44
2022/04/26 06:10:12;;;;;;;11.95;4.22;;;;;;;6.53;70.36;100776.19;5046780;28;20435;-44
2022/04/26 06:12:41;;;;;;;12.65;4.40;;;;;;;6.55;70.60;100774.53;5050242;28;20049;-40
2022/04/26 06:15:08;;;;;;;11.20;4.45;;;;;;;6.56;69.74;100776.28;5046967;28;20162;-42
2022/04/26 06:17:35;;;;;;;9.73;3.30;;;;;;;6.60;70.81;100772.06;5049683;28;20057;-41
2022/04/26 06:20:02;;;;;;;15.43;5.07;;;;;;;6.64;69.78;100779.91;5031937;28;20052;-45
2022/04/26 06:22:29;;;;;;;10.65;4.22;;;;;;;6.68;69.62;100781.72;5048208;28;20656;-42
2022/04/26 06:24:55;;;;;;;12.00;4.75;;;;;;;6.71;69.97;100780.94;5046573;28;20079;-40
2022/04/26 06:27:22;;;;;;;10.20;4.40;;;;;;;6.75;69.83;100777.59;5047499;28;20673;-48
2022/04/26 06:29:48;;;;;;;10.00;3.80;;;;;;;6.79;70.74;100783.72;5048727;28;20463;-42
2022/04/26 06:32:15;;;;;;;9.48;4.15;;;;;;;6.84;69.66;100782.13;5051716;28;20091;-47
2022/04/26 06:34:42;;;;;;;9.05;3.97;;;;;;;6.92;69.37;100775.44;5045413;28;20095;-46
2022/04/26 06:37:08;;;;;;;10.77;4.47;;;;;;;7.00;69.26;100782.47;5046779;28;20052;-43
2022/04/26 06:39:35;;;;;;;7.38;3.72;;;;;;;7.07;70.44;100780.06;5045186;28;20386;-48
2022/04/26 06:42:02;;;;;;;7.43;3.97;;;;;;;7.14;69.48;100785.38;5048124;28;20148;-41
2022/04/26 06:44:29;;;;;;;9.02;3.67;;;;;;;7.22;69.52;100795.88;5044738;28;20079;-41
2022/04/26 06:47:00;;;;;;;6.63;3.30;;;;;;;7.25;68.89;100789.09;5025096;28;20057;-45
2022/04/26 06:49:27;;;;;;;9.68;3.92;;;;;;;7.33;68.46;100786.69;5026597;28;20052;-40
2022/04/26 06:51:53;;;;;;;7.80;3.65;;;;;;;7.39;69.42;100797.13;5027575;28;20080;-45
2022/04/26 06:54:20;;;;;;;10.82;4.55;;;;;;;7.44;69.21;100800.66;5025374;28;20420;-45
2022/04/26 06:56:47;;;;;;;13.80;4.35;;;;;;;7.45;68.88;100794.69;5024979;28;20057;-44
2022/04/26 06:59:13;;;;;;;10.15;4.03;;;;;;;7.57;68.22;100803.53;5028999;28;20535;-41
2022/04/26 07:01:40;;;;;;;11.77;3.88;;;;;;;7.64;69.50;100805.41;5024339;28;20041;-42
2022/04/26 07:04:08;;;;;;;9.65;4.03;;;;;;;7.60;67.78;100811.31;5026805;28;20045;-43
2022/04/26 07:06:38;;;;;;;9.23;3.92;;;;;;;7.60;68.59;100811.31;5022250;28;20049;-42
2022/04/26 07:09:05;;;;;;;10.35;3.67;;;;;;;7.60;68.80;100813.88;5024397;28;20123;-41
2022/04/26 07:11:32;;;;;;;6.97;3.53;;;;;;;7.63;68.99;100811.38;5024919;28;20054;-44
2022/04/26 07:13:59;;;;;;;10.20;4.45;;;;;;;8.16;68.71;100816.75;5026320;28;20120;-43
2022/04/26 07:16:25;;;;;;;10.52;3.83;;;;;;;8.52;67.41;100817.41;5027842;28;20608;-42
2022/04/26 07:18:52;;;;;;;18.83;4.25;;;;;;;8.65;66.95;100821.13;5025902;28;20048;-48
2022/04/26 07:21:19;;;;;;;9.07;3.78;;;;;;;8.65;67.01;100821.97;5026244;28;20049;-46
2022/04/26 07:23:46;;;;;;;8.88;3.50;;;;;;;8.56;66.41;100822.72;5026220;28;20077;-42
2022/04/26 07:26:13;;;;;;;10.60;3.95;;;;;;;8.43;66.00;100829.31;5027269;28;20139;-41
2022/04/26 07:28:40;;;;;;;9.95;3.55;;;;;;;8.41;66.34;100825.81;5023739;28;20053;-42
2022/04/26 07:31:08;;;;;;;9.13;4.20;;;;;;;8.70;67.26;100828.13;5015891;28;20049;-50
2022/04/26 07:36:22;;;;;;;8.05;3.38;;;;;;;9.02;66.36;100836.38;5039376;28;20107;-46
2022/04/26 07:38:49;;;;;;;8.30;4.18;;;;;;;9.12;65.33;100835.69;5026523;28;20057;-45
2022/04/26 07:41:17;;;;;;;7.25;4.07;;;;;;;9.16;65.31;100837.50;5028424;28;20050;-43
2022/04/26 07:43:44;;;;;;;7.57;3.83;;;;;;;9.11;64.81;100842.56;5025501;28;20042;-41
2022/04/26 07:46:15;;;;;;;6.65;3.90;;;;;;;9.11;65.31;100849.44;5029040;28;20103;-44
2022/04/26 07:48:43;;;;;;;7.00;3.50;;;;;;;9.06;65.06;100838.19;5026173;28;20057;-45
2022/04/26 07:51:11;;;;;;;10.55;4.13;;;;;;;9.06;65.04;100843.34;5026298;28;20132;-41
2022/04/26 07:53:38;;;;;;;7.72;4.22;;;;;;;9.16;65.53;100849.53;5028492;28;20061;-42
2022/04/26 07:56:05;;;;;;;8.70;4.20;;;;;;;9.21;64.86;100847.88;5029013;28;20049;-46
2022/04/26 07:58:32;;;;;;;8.32;3.95;;;;;;;9.23;64.78;100856.53;5026505;28;20136;-42
2022/04/26 08:01:00;;;;;;;9.18;3.53;;;;;;;9.25;64.84;100865.16;5027137;28;20049;-43
2022/04/26 08:03:27;;;;;;;8.80;4.10;;;;;;;9.21;64.69;100869.44;5027469;28;20069;-43
2022/04/26 08:05:54;;;;;;;7.68;3.92;;;;;;;9.22;64.39;100866.00;5027010;28;20132;-43
2022/04/26 08:08:20;;;;;;;9.40;4.18;;;;;;;9.34;65.00;100864.44;5024092;28;20049;-41
2022/04/26 08:10:53;;;;;;;9.05;3.83;;;;;;;9.51;64.69;100863.00;5027724;28;20048;-45
2022/04/26 08:13:20;;;;;;;13.27;4.20;;;;;;;9.57;64.28;100866.53;5026414;28;20049;-43
2022/04/26 08:15:47;;;;;;;10.63;4.47;;;;;;;9.54;64.07;100866.47;5027099;28;20053;-40
2022/04/26 08:18:14;;;;;;;9.52;4.10;;;;;;;9.55;63.94;100874.25;5025236;28;20049;-42
2022/04/26 08:20:41;;;;;;;10.10;4.20;;;;;;;9.63;64.37;100876.97;5023670;28;20103;-45
2022/04/26 08:23:07;;;;;;;9.10;3.88;;;;;;;9.80;65.27;100878.91;5025321;28;20046;-47
2022/04/26 08:28:21;;;;;;;9.80;3.13;;;;;;;10.00;63.54;100877.47;5019606;28;20048;-46
2022/04/26 08:30:47;;;;;;;8.43;3.78;;;;;;;10.05;63.61;100876.63;5031229;28;20618;-42
2022/04/26 08:33:14;;;;;;;8.10;3.35;;;;;;;10.12;63.11;100886.22;5028424;28;20047;-43
2022/04/26 08:35:41;;;;;;;7.57;3.83;;;;;;;10.12;62.51;100881.06;5025392;28;20057;-45
2022/04/26 08:38:27;;;;;;;9.57;3.35;;;;;;;10.12;63.28;100878.47;5021884;28;20416;-44
2022/04/26 08:40:54;;;;;;;7.63;3.80;;;;;;;10.19;62.87;100885.47;5024440;28;20053;-48
2022/04/26 08:43:21;;;;;;;6.80;3.28;;;;;;;10.42;62.78;100884.88;5026364;28;20540;-44
2022/04/26 08:45:48;;;;;;;11.07;3.70;;;;;;;10.65;62.11;100884.28;5024545;28;20095;-49
2022/04/26 08:51:03;;;;;;;9.38;4.40;;;;;;;10.96;61.46;100892.34;5021060;28;20088;-42
2022/04/26 08:53:33;;;;;;;10.30;4.35;;;;;;;11.12;61.47;100895.09;5020873;28;20072;-44
2022/04/26 08:56:06;;;;;;;8.88;3.53;;;;;;;11.21;60.94;100896.91;5022285;28;20405;-42
2022/04/26 08:58:34;;;;;;;5.85;2.78;;;;;;;11.32;61.38;100901.28;5020513;28;20724;-44
2022/04/26 09:03:54;;;;;;;9.20;3.45;;;;;;;11.50;60.77;100904.91;5074540;27;20142;-44
2022/04/26 09:06:39;;;;;;;5.95;3.15;;;;;;;11.56;59.24;100904.06;5042935;28;20397;-45
2022/04/26 09:11:47;;;;;;;5.85;3.38;;;;;;;11.82;59.77;100896.44;5092635;27;20125;-48
2022/04/26 09:14:35;;;;;;;5.65;2.90;;;;;;;12.20;56.93;100902.72;5036986;28;20056;-49
2022/04/26 09:17:11;;;;;;;6.00;2.67;;;;;;;12.44;57.40;100910.59;5053918;28;20107;-44
2022/04/26 09:19:48;;;;;;;5.35;2.72;;;;;;;12.60;58.03;100907.19;5034478;28;20139;-43
2022/04/26 09:22:25;;;;;;;6.20;2.95;;;;;;;12.85;58.31;100917.66;5031598;28;20130;-46
2022/04/26 09:25:03;;;;;;;7.22;2.95;;;;;;;13.06;55.69;100917.66;5022678;28;20046;-47
2022/04/26 09:27:30;;;;;;;4.65;2.70;;;;;;;13.17;54.81;100917.69;5020645;28;20049;-46
2022/04/26 09:29:57;;;;;;;4.90;2.30;;;;;;;13.41;55.22;100911.59;5024025;28;20111;-49
2022/04/26 09:32:23;;;;;;;4.95;2.33;;;;;;;13.69;54.89;100910.72;5014944;28;20054;-44
2022/04/26 09:34:50;;;;;;;9.00;2.50;;;;;;;13.87;54.19;100917.63;5017171;28;20141;-42
2022/04/26 09:37:17;;;;;;;4.60;2.42;;;;;;;14.04;54.33;100912.38;5017947;28;20042;-44
2022/04/26 09:40:02;;;;;;;4.03;2.47;;;;;;;14.19;52.75;100913.19;5023577;28;20053;-46
2022/04/26 09:42:32;;;;;;;7.47;2.40;;;;;;;14.42;53.51;100917.44;5014039;28;20107;-43
2022/04/26 09:45:08;;;;;;;5.32;2.30;;;;;;;14.56;51.48;100914.78;5019932;28;20681;-46
2022/04/26 09:47:37;;;;;;;5.88;2.33;;;;;;;14.83;51.93;100913.75;5020671;28;20132;-45
2022/04/26 09:50:06;;;;;;;5.63;2.70;;;;;;;15.00;51.24;100915.41;5021224;28;20096;-43
2022/04/26 09:52:33;;;;;;;7.97;2.78;;;;;;;15.04;50.34;100912.75;5019750;28;20065;-44
2022/04/26 09:55:00;;;;;;;8.15;3.08;;;;;;;15.21;50.78;100913.50;5016307;28;20503;-45
2022/04/26 09:57:31;;;;;;;6.45;3.03;;;;;;;15.26;50.08;100916.94;5020727;28;20046;-42
2022/04/26 10:00:09;;;;;;;5.32;2.88;;;;;;;15.40;49.85;100925.50;5018100;28;20042;-48
2022/04/26 10:02:57;;;;;;;4.97;2.75;;;;;;;15.41;49.85;100922.00;5021681;28;20045;-45
2022/04/26 10:05:26;;;;;;;7.93;4.15;;;;;;;15.34;48.69;100920.38;5021525;28;20398;-46
2022/04/26 10:07:53;;;;;;;4.95;2.60;;;;;;;15.37;48.64;100929.91;5024138;28;20548;-50
2022/04/26 10:10:20;;;;;;;6.63;2.33;;;;;;;15.40;49.64;100925.50;5021894;28;20053;-49
2022/04/26 10:13:31;;;;;;;3.67;1.90;;;;;;;15.58;48.80;100927.97;5023527;28;20060;-42
2022/04/26 10:15:36;;;;;;;4.25;2.35;;;;;;;15.67;47.69;100922.66;5023651;28;20049;-44
2022/04/26 10:18:32;;;;;;;3.53;2.10;;;;;;;15.81;46.56;100927.75;5021615;28;20076;-47
2022/04/26 10:21:00;;;;;;;3.28;2.08;;;;;;;15.99;47.27;100928.44;5022845;28;20049;-42
2022/04/26 10:23:28;;;;;;;3.83;2.13;;;;;;;16.11;47.71;100932.69;5007743;28;20046;-42
2022/04/26 10:31:45;;;;;;;4.05;2.88;;;;;;;16.14;45.70;100923.03;5022112;28;20068;-48
2022/04/26 10:36:59;;;;;;;5.43;2.25;;;;;;;16.30;44.53;100934.19;5094274;27;20117;-45
2022/04/26 10:42:25;;;;;;;3.00;1.60;;;;;;;16.57;43.04;100936.47;5091712;27;20122;-43
2022/04/26 10:52:40;;;;;;;4.60;2.95;;;;;;;17.15;40.46;100928.66;5049621;27;20405;-43
2022/04/26 10:55:10;;;;;;;4.03;2.95;;;;;;;17.13;41.72;100920.00;5047844;28;20084;-43
2022/04/26 10:57:42;;;;;;;4.50;3.50;;;;;;;17.25;42.28;100924.13;5054465;28;20045;-45
2022/04/26 11:00:13;;;;;;;5.45;3.72;;;;;;;17.36;41.79;100931.81;5043222;28;20050;-44
2022/04/26 11:02:44;;;;;;;4.40;3.45;;;;;;;17.33;42.00;100922.25;5023835;28;20041;-43
2022/04/26 11:05:16;;;;;;;4.85;2.92;;;;;;;17.41;41.75;100924.75;5050376;28;20049;-43
2022/04/26 11:07:45;;;;;;;5.13;3.65;;;;;;;17.46;41.55;100927.28;5052031;28;20049;-41
2022/04/26 11:10:13;;;;;;;3.70;2.78;;;;;;;17.50;41.02;100917.63;5051733;28;20523;-46
2022/04/26 11:12:41;;;;;;;4.15;2.55;;;;;;;17.45;40.73;100921.19;5047077;28;20099;-42
2022/04/26 11:22:56;;;;;;;4.03;2.00;;;;;;;17.94;40.22;100923.78;5015119;27;20385;-44
2022/04/26 11:28:14;;;;;;;3.38;1.75;;;;;;;17.86;36.42;100915.19;4956112;28;20105;-42
2022/04/26 11:33:22;;;;;;;7.45;2.97;;;;;;;18.11;38.38;100930.50;5065972;27;20127;-43
2022/04/26 11:35:52;;;;;;;;;;;;;;;18.14;37.30;100919.06;5031704;28;20473;-43
2022/04/26 11:38:21;;;;;;;5.70;3.55;;;;;;;18.08;37.65;100925.28;5029197;28;19925;-45
2022/04/26 11:46:20;;;;;;;3.25;1.60;;;;;;;17.82;37.42;100929.25;5125196;27;20411;-45
2022/04/26 11:48:47;;;;;;;3.63;1.52;;;;;;;17.82;37.31;100926.63;5103518;28;20441;-46
2022/04/26 11:51:14;;;;;;;2.10;1.25;;;;;;;17.81;37.70;100924.91;5114156;27;20051;-42
2022/04/26 11:53:41;;;;;;;3.30;2.30;;;;;;;17.71;37.40;100927.72;5111237;27;20073;-43
2022/04/26 11:56:08;;;;;;;2.95;1.65;;;;;;;17.55;37.60;100927.13;5111321;27;20051;-44
2022/04/26 11:58:37;;;;;;;1.75;1.00;;;;;;;17.52;36.25;100931.53;5113460;28;20055;-46
2022/04/26 12:01:11;;;;;;;2.90;1.98;;;;;;;17.45;35.53;100936.03;5115714;28;20063;-46
2022/04/26 12:08:53;;;;;;;2.60;1.70;;;;;;;17.57;37.62;100934.97;5089283;27;20117;-45
2022/04/26 12:16:43;;;;;;;3.92;1.85;;;;;;;17.68;35.64;100932.13;5062362;27;20163;-43
2022/04/26 12:19:11;;;;;;;3.17;1.98;;;;;;;17.66;36.23;100933.94;5060752;28;20037;-47
2022/04/26 12:21:59;;;;;;;3.50;2.00;;;;;;;17.62;35.26;100930.50;5057664;28;20049;-45
2022/04/26 12:24:29;;;;;;;3.15;1.73;;;;;;;17.67;37.33;100933.88;5056397;28;20069;-46
2022/04/26 12:27:10;;;;;;;3.20;2.42;;;;;;;17.71;36.37;100921.59;5055566;28;20053;-44
2022/04/26 12:29:55;;;;;;;3.50;1.92;;;;;;;17.78;36.87;100919.72;5056207;28;20555;-46
2022/04/26 12:32:26;;;;;;;4.75;2.10;;;;;;;17.75;36.88;100911.91;5057236;28;20045;-43
2022/04/26 12:34:56;;;;;;;3.70;2.10;;;;;;;17.64;37.15;100913.00;5052129;28;20123;-41
2022/04/26 12:37:26;;;;;;;3.90;2.25;;;;;;;17.56;36.02;100920.16;5044556;28;20040;-42
2022/04/26 12:39:58;;;;;;;4.20;2.55;;;;;;;17.41;36.93;100909.03;5055223;28;20052;-48
2022/04/26 12:58:10;;;;;;;3.78;2.15;;;;;;;17.37;36.41;100907.38;5049184;27;20147;-44
2022/04/26 13:00:52;;;;;;;3.58;2.15;;;;;;;17.29;36.30;100909.25;5017778;28;20045;-46
2022/04/26 13:03:22;;;;;;;3.67;2.00;;;;;;;17.38;37.60;100908.22;5023449;28;20556;-47
2022/04/26 13:05:52;;;;;;;4.45;2.10;;;;;;;17.46;36.22;100906.31;5020801;28;20056;-47
2022/04/26 13:08:20;;;;;;;3.80;1.75;;;;;;;17.49;37.13;100897.56;5024722;28;20052;-46
2022/04/26 13:10:48;;;;;;;3.80;1.70;;;;;;;17.68;36.93;100906.81;5041681;28;20629;-46
2022/04/26 13:13:16;;;;;;;3.97;2.25;;;;;;;17.91;37.12;100902.91;5029180;28;20050;-53
2022/04/26 13:15:43;;;;;;;3.28;1.90;;;;;;;17.99;36.42;100906.22;5039510;28;20067;-43
2022/04/26 13:18:10;;;;;;;4.45;1.77;;;;;;;17.93;36.12;100906.34;5037791;28;20049;-45
2022/04/26 13:20:38;;;;;;;2.80;1.80;;;;;;;17.86;36.49;100904.72;5021643;28;20111;-47
2022/04/26 13:23:11;;;;;;;4.15;2.13;;;;;;;17.80;36.16;100899.63;5048128;28;20057;-43
2022/04/26 13:25:38;;;;;;;5.50;2.20;;;;;;;17.81;37.45;100901.34;5043338;28;20070;-42
2022/04/26 13:28:06;;;;;;;5.22;2.45;;;;;;;17.81;36.64;100893.47;5028480;28;20068;-47
2022/04/26 13:30:33;;;;;;;4.80;2.42;;;;;;;17.92;36.77;100904.63;5021397;28;20041;-46
2022/04/26 13:33:00;;;;;;;4.25;2.40;;;;;;;17.84;36.92;100901.28;5026286;28;20129;-50
2022/04/26 13:35:27;;;;;;;6.75;2.63;;;;;;;17.79;36.94;100897.88;5022963;28;20053;-46
2022/04/26 13:37:55;;;;;;;3.78;2.28;;;;;;;17.62;36.60;100891.19;5021828;28;20045;-46
2022/04/26 13:40:22;;;;;;;5.45;2.50;;;;;;;17.35;36.97;100893.44;5024121;28;20046;-48
2022/04/26 13:42:56;;;;;;;5.90;2.42;;;;;;;17.10;37.05;100888.63;5019953;28;20052;-49
2022/04/26 13:45:23;;;;;;;6.03;2.72;;;;;;;16.98;37.90;100899.25;5023765;28;20057;-45
2022/04/26 13:47:51;;;;;;;3.78;3.03;;;;;;;16.77;37.75;100890.84;5025445;28;20112;-42
2022/04/26 13:50:18;;;;;;;5.53;3.08;;;;;;;16.62;38.79;100886.72;5023761;28;20045;-50
2022/04/26 13:52:45;;;;;;;5.72;2.53;;;;;;;16.69;38.67;100883.97;5024215;28;20556;-46
2022/04/26 13:55:17;;;;;;;7.25;3.03;;;;;;;16.76;38.13;100886.50;5021679;28;20046;-46
2022/04/26 13:57:45;;;;;;;4.03;3.03;;;;;;;16.94;37.73;100881.00;5021545;28;20049;-47
2022/04/26 14:00:15;;;;;;;4.47;2.47;;;;;;;17.19;37.50;100883.22;5021540;28;20044;-44
2022/04/26 14:02:46;;;;;;;5.65;3.40;;;;;;;17.31;37.86;100886.53;5020816;28;20233;-46
2022/04/26 14:05:13;;;;;;;7.05;3.40;;;;;;;17.27;36.77;100874.38;5020956;28;20100;-43
2022/04/26 14:07:40;;;;;;;6.65;3.33;;;;;;;17.14;37.65;100877.22;5018452;28;20038;-45
2022/04/26 14:10:08;;;;;;;4.65;3.15;;;;;;;17.03;37.99;100881.72;5006505;28;20052;-45
2022/04/26 14:12:36;;;;;;;6.57;2.95;;;;;;;16.89;38.05;100880.19;5009275;28;20045;-47
2022/04/26 14:23:28;;;;;;;4.85;3.00;;;;;;;15.71;39.42;100873.88;5020994;28;20053;-43
2022/04/26 14:25:58;;;;;;;8.13;3.83;;;;;;;15.54;39.74;100874.94;5039687;28;20053;-44
2022/04/26 14:28:25;;;;;;;7.45;3.65;;;;;;;15.38;39.65;100869.84;5037911;28;20159;-43
2022/04/26 14:30:51;;;;;;;5.07;3.50;;;;;;;15.28;39.92;100879.53;5041853;28;20396;-47
2022/04/26 14:33:19;;;;;;;5.07;3.47;;;;;;;15.24;40.77;100869.13;5031462;28;20049;-42
2022/04/26 14:35:46;;;;;;;6.22;3.40;;;;;;;15.11;39.94;100866.63;5029296;28;20059;-49
2022/04/26 14:38:12;;;;;;;5.93;3.50;;;;;;;15.06;39.88;100873.59;5030097;28;20049;-40
2022/04/26 14:40:39;;;;;;;6.70;3.40;;;;;;;15.11;40.34;100870.97;5025683;28;20041;-44
2022/04/26 14:43:09;;;;;;;6.88;3.38;;;;;;;15.14;40.00;100865.72;5021588;28;20086;-44
2022/04/26 14:45:56;;;;;;;6.57;3.80;;;;;;;15.23;40.59;100870.00;5012258;28;20537;-43
2022/04/26 14:48:23;;;;;;;5.30;3.58;;;;;;;15.31;40.52;100865.56;5005461;28;20073;-48
2022/04/26 14:50:55;;;;;;;5.32;3.03;;;;;;;15.33;39.58;100863.78;5004696;28;20045;-47
2022/04/26 14:53:22;;;;;;;5.88;3.45;;;;;;;15.37;39.92;100862.88;5007839;28;20052;-48
2022/04/26 14:56:09;;;;;;;4.82;3.85;;;;;;;15.42;38.87;100868.06;5007454;28;20139;-45
2022/04/26 14:59:00;;;;;;;6.88;3.78;;;;;;;15.49;39.90;100866.25;5009424;28;20120;-44
2022/04/26 15:01:49;;;;;;;5.55;4.05;;;;;;;15.60;40.04;100868.78;5006034;28;20137;-41
2022/04/26 15:04:17;;;;;;;5.88;4.07;;;;;;;15.66;39.90;100864.34;5003133;28;20501;-43
2022/04/26 15:06:44;;;;;;;9.68;3.53;;;;;;;15.71;40.05;100863.44;5004845;28;20046;-42
2022/04/26 15:17:32;;;;;;;4.78;3.10;;;;;;;15.78;38.51;100865.09;4994029;28;20119;-43
2022/04/26 15:20:00;;;;;;;5.65;3.63;;;;;;;15.69;37.62;100866.06;5005196;28;20058;-41
2022/04/26 15:22:26;;;;;;;5.57;3.03;;;;;;;15.61;37.77;100866.16;5004024;28;20053;-43
2022/04/26 15:24:54;;;;;;;4.47;2.95;;;;;;;15.63;38.49;100863.50;5005632;28;20042;-46
2022/04/26 15:27:21;;;;;;;5.20;2.90;;;;;;;15.70;38.78;100859.94;5003460;28;20049;-44
2022/04/26 15:29:48;;;;;;;6.10;3.47;;;;;;;15.79;39.03;100853.75;5001095;28;20053;-44
2022/04/26 15:32:15;;;;;;;5.75;3.67;;;;;;;15.80;38.46;100858.09;5011459;28;20054;-42
2022/04/26 15:34:42;;;;;;;4.95;3.42;;;;;;;15.82;39.41;100861.56;5006622;28;20081;-48
2022/04/26 15:37:09;;;;;;;5.60;3.03;;;;;;;15.85;39.55;100858.91;5004676;28;20050;-41
2022/04/26 15:39:35;;;;;;;6.00;3.55;;;;;;;15.82;38.63;100864.19;5003516;28;20057;-42
2022/04/26 15:42:03;;;;;;;5.10;3.85;;;;;;;15.71;38.62;100855.59;5004694;28;20061;-39
2022/04/26 15:44:30;;;;;;;4.93;3.63;;;;;;;15.63;38.32;100859.16;5005482;28;20042;-41
2022/04/26 15:46:57;;;;;;;6.50;3.67;;;;;;;15.63;38.96;100858.28;5005405;28;20457;-50
2022/04/26 15:49:24;;;;;;;5.93;3.65;;;;;;;15.69;39.41;100858.22;5006499;28;20048;-42
2022/04/26 15:51:56;;;;;;;5.43;2.45;;;;;;;15.63;38.22;100868.72;5007696;28;20219;-41
2022/04/26 15:54:24;;;;;;;5.93;3.08;;;;;;;15.53;38.05;100868.84;5001472;28;20059;-43
2022/04/26 15:56:50;;;;;;;7.68;3.30;;;;;;;15.50;38.39;100873.22;5012525;28;20676;-43
2022/04/26 15:59:17;;;;;;;4.82;3.22;;;;;;;15.45;39.31;100875.00;5008633;28;20049;-41
2022/04/26 16:01:48;;;;;;;5.18;3.60;;;;;;;15.37;39.99;100883.75;5005408;28;20057;-45
2022/04/26 16:04:16;;;;;;;7.13;3.72;;;;;;;15.15;40.04;100877.88;5005328;28;20144;-42
2022/04/26 16:06:42;;;;;;;7.50;3.67;;;;;;;15.03;40.09;100889.31;5006738;28;20529;-42
2022/04/26 16:20:34;;;;;;;6.53;5.90;;;;;;;14.55;40.94;100893.03;4987893;28;20474;-46
2022/04/26 16:23:07;;;;;;;6.05;3.70;;;;;;;14.53;41.64;100894.81;5007355;28;20062;-44
2022/04/26 16:25:34;;;;;;;8.00;4.10;;;;;;;14.48;41.39;100891.34;5001960;28;20557;-45
2022/04/26 16:28:02;;;;;;;8.73;3.88;;;;;;;14.44;41.24;100895.72;5008285;28;20050;-43
2022/04/26 16:30:33;;;;;;;4.70;3.20;;;;;;;14.35;41.57;100896.63;5004454;28;20050;-44
2022/04/26 16:33:05;;;;;;;5.65;3.63;;;;;;;14.33;42.04;100895.78;5004297;28;20046;-43
2022/04/26 16:35:32;;;;;;;5.80;3.28;;;;;;;14.37;41.83;100894.00;5005971;28;20057;-39
2022/04/26 16:37:59;;;;;;;7.10;3.75;;;;;;;14.34;42.28;100889.69;5003512;28;20046;-45
2022/04/26 16:40:28;;;;;;;6.88;3.20;;;;;;;14.26;42.35;100894.91;5006215;28;20049;-48
2022/04/26 16:42:54;;;;;;;6.90;3.30;;;;;;;14.20;42.99;100894.97;5004947;28;20054;-41
2022/04/26 16:45:22;;;;;;;5.28;3.25;;;;;;;14.19;42.75;100905.38;5001601;28;20054;-47
2022/04/26 16:47:51;;;;;;;7.57;3.33;;;;;;;14.21;42.09;100898.41;5007902;28;20054;-45
2022/04/26 16:50:18;;;;;;;5.63;3.25;;;;;;;14.17;42.69;100901.91;5008923;28;20065;-45
2022/04/26 16:52:49;;;;;;;5.72;2.90;;;;;;;14.16;42.90;100902.78;5004740;28;20045;-42
2022/04/26 16:55:16;;;;;;;5.90;3.40;;;;;;;14.08;42.47;100901.06;5006033;28;20092;-40
2022/04/26 16:58:02;;;;;;;6.18;2.88;;;;;;;14.07;43.01;100904.56;5006055;28;20052;-39
2022/04/26 17:00:47;;;;;;;5.15;3.33;;;;;;;14.07;43.57;100912.38;5007009;28;20052;-46
2022/04/26 17:03:16;;;;;;;5.95;2.83;;;;;;;14.04;42.91;100907.16;5004044;28;20128;-43